NEODyS-2

Near Earth Objects - Dynamic Site
NEODyS ∴ Observatories ∴ Site 691 ∴ Obs & residuals
Contact »
691  ▹ 
OBSERVATIONS AND RESIDUALS

691-Steward Observatory, Kitt Peak-Spacewatch

Detections | Residuals | Detections & Residuals

[1-200] [201-400] [401-600] [601-800] [801-1000] [1001-1200] [1201-1400] [1401-1600] [1601-1800] [1801-2000] [2001-2200] [2201-2400] [2401-2600] [2601-2800] [2801-3000] [3001-3200] [3201-3400] [3401-3600] [3601-3800] [3801-4000] [4001-4200] [4201-4400] [4401-4600] [4601-4800] [4801-5000] [5001-5200] [5201-5400] [5401-5600] [5601-5800] [5801-6000] [6001-6200] [6201-6400] [6401-6600] [6601-6800] [6801-7000] [7001-7200] [7201-7400] [7401-7600] [7601-7800] [7801-8000] [8001-8200] [8201-8400] [8401-8600] [8601-8800] [8801-9000] [9001-9200] [9201-9400] [9401-9600] [9601-9800] [9801-10000] [10001-10200] [10201-10400] [10401-10600] [10601-10800] [10801-11000] [11001-11200] [11201-11400] [11401-11600] [11601-11800] [11801-12000] [12001-12200] [12201-12400] [12401-12600] [12601-12800] [12801-13000] [13001-13200] [13201-13400] [13401-13600] [13601-13800] [13801-14000] [14001-14200] [14201-14400] [14401-14600] [14601-14800] [14801-15000] [15001-15200] [15201-15400] [15401-15600] [15601-15800] [15801-16000] [16001-16200] [16201-16400] [16401-16600] [16601-16800] [16801-17000] [17001-17200] [17201-17400] [17401-17600] [17601-17800] [17801-18000] [18001-18200] [18201-18400] [18401-18600] [18601-18800] [18801-19000] [19001-19200] [19201-19400] [19401-19600] [19601-19800] [19801-20000] [20001-20200] [20201-20400] [20401-20600] [20601-20800] [20801-21000] [21001-21200] [21201-21400] [21401-21600] [21601-21800] [21801-22000] [22001-22200] [22201-22400] [22401-22600] [22601-22800] [22801-23000] [23001-23200] [23201-23400] [23401-23600] [23601-23800] [23801-24000] [24001-24200] [24201-24400] [24401-24600] [24601-24800] [24801-25000] [25001-25200] [25201-25400] [25401-25600] [25601-25800] [25801-26000] [26001-26200] [26201-26400] [26401-26600] [26601-26800] [26801-27000] [27001-27200] [27201-27400] [27401-27600] [27601-27800] [27801-28000] [28001-28200] [28201-28400] [28401-28600] [28601-28800] [28801-29000] [29001-29200] [29201-29400] [29401-29600] [29601-29800] [29801-30000] [30001-30200] [30201-30400] [30401-30600] [30601-30800] [30801-31000] [31001-31200] [31201-31400] [31401-31600] [31601-31800] [31801-32000] [32001-32200] [32201-32400] [32401-32600] [32601-32800] [32801-33000] [33001-33200] [33201-33400] [33401-33600] [33601-33800] [33801-34000] [34001-34200] [34201-34400] [34401-34600] [34601-34800] [34801-35000] [35001-35200] [35201-35400] [35401-35600] [35601-35800] [35801-36000] [36001-36200] [36201-36400] [36401-36600] [36601-36800] [36801-37000] [37001-37200] [37201-37400] [37401-37600] [37601-37800] [37801-38000] [38001-38200] [38201-38400] [38401-38600] [38601-38800] [38801-39000] [39001-39200] [39201-39400] [39401-39600] [39601-39800] [39801-40000] [40001-40200] [40201-40400] [40401-40600] [40601-40800] [40801-41000] [41001-41200] [41201-41400] [41401-41600] [41601-41800] [41801-42000] [42001-42200] [42201-42400] [42401-42600] [42601-42800] [42801-43000] [43001-43200] [43201-43400] [43401-43600] [43601-43800] [43801-44000] [44001-44200] [44201-44400] [44401-44600] [44601-44800] [44801-45000] [45001-45200] [45201-45400] [45401-45600] [45601-45800] [45801-46000] [46001-46200] [46201-46400] [46401-46600] [46601-46800] [46801-47000] [47001-47200] [47201-47400] [47401-47600] [47601-47800] [47801-48000] [48001-48200] [48201-48400] [48401-48600] [48601-48800] [48801-49000] [49001-49200] [49201-49400] [49401-49600] [49601-49800] [49801-50000] [50001-50200] [50201-50388]

Designation T Tech N Date Right Ascension Declination Apparent Magnitude Star Catalog Site code χ Used A Used M
yr-mo-day precision hr:min:sec precision rms F bias residual deg min sec precision rms F bias residual mag/col rms residual
2005YT55 O C 2005-12-27.40452 1.000E-05 08:10:51.480 1.500E-01 0.500 F 0.198 -0.232 +15° 15' 21.20" 1.000E-01 0.500 F 0.113 -0.198 20.4 V 0.70 0.08 c 691 0.62 Yes Yes
2005YT55 O C 2005-12-27.42189 1.000E-05 08:10:52.260 1.500E-01 0.500 F 0.198 -0.190 +15° 15' 19.30" 1.000E-01 0.500 F 0.113 0.065 20.5 V 0.70 0.18 c 691 0.41 Yes Yes
2000YH66 O C F 2005-12-28.08430 1.000E-05 04:44:32.690 1.500E-01 0.500 F 0.012 0.291 +22° 09' 46.70" 1.000E-01 0.500 F 0.406 0.286 20.9 V 0.70 1.27 c 691 0.82 Yes Yes
2000YH66 O C 2005-12-28.09456 1.000E-05 04:44:30.700 1.500E-01 0.500 F 0.012 -0.265 +22° 09' 37.50" 1.000E-01 0.500 F 0.406 0.111 20.3 V 0.70 0.67 c 691 0.58 Yes Yes
2000YH66 O C 2005-12-28.10482 1.000E-05 04:44:28.760 1.500E-01 0.500 F 0.012 -0.099 +22° 09' 28.40" 1.000E-01 0.500 F 0.406 0.045 20.2 V 0.70 0.57 c 691 0.22 Yes Yes
2005YU55 O C F 2005-12-28.25072 1.000E-05 06:53:24.600 1.500E-01 0.500 F 0.031 -0.850 +24° 10' 07.50" 1.000E-01 0.500 F 0.336 -0.098 21.4 V 0.70 0.04 c 691 1.71 Yes Yes
2005YU55 O C F 2005-12-28.26806 1.000E-05 06:53:21.190 1.500E-01 0.500 F 0.031 0.159 +24° 10' 11.70" 1.000E-01 0.500 F 0.336 -0.550 21.4 V 0.70 0.04 c 691 1.15 Yes Yes
2005YU55 O C F 2005-12-28.28596 1.000E-05 06:53:17.670 1.500E-01 0.500 F 0.031 1.265 +24° 10' 16.80" 1.000E-01 0.500 F 0.336 -0.175 21.4 V 0.70 0.05 c 691 2.55 Yes Yes
2005YU8 O C t 2005-12-28.35316 1.000E-05 07:31:33.680 1.500E-01 0.500 F 0.167 -0.073 +22° 26' 18.20" 1.000E-01 0.500 F 0.244 -0.059 c 691 0.19 Yes No
2005YU8 O C t 2005-12-28.37046 1.000E-05 07:31:38.100 1.500E-01 0.500 F 0.167 0.664 +22° 25' 31.40" 1.000E-01 0.500 F 0.244 -0.533 c 691 1.73 Yes No
2005YU8 O C t 2005-12-28.38779 1.000E-05 07:31:42.460 1.500E-01 0.500 F 0.180 0.290 +22° 24' 44.80" 1.000E-01 0.500 F 0.303 -0.422 c 691 1.04 Yes No
Beltrovata O C 2005-12-28.41200 1.000E-05 08:08:34.340 1.500E-01 0.500 F 0.267 0.114 +19° 36' 25.30" 1.000E-01 0.500 F 0.479 -0.058 18.8 V 0.70 -0.01 c 691 0.26 Yes Yes
Beltrovata O C 2005-12-28.42930 1.000E-05 08:08:33.100 1.500E-01 0.500 F 0.267 0.237 +19° 36' 27.00" 1.000E-01 0.500 F 0.479 -0.151 19.0 V 0.70 0.19 c 691 0.56 Yes Yes
Beltrovata O C 2005-12-28.44660 1.000E-05 08:08:31.840 1.500E-01 0.500 F 0.267 0.066 +19° 36' 28.70" 1.000E-01 0.500 F 0.479 -0.226 19.4 V 0.70 0.59 c 691 0.47 Yes Yes
2005TZ51 O C 2005-12-28.47093 1.000E-05 08:38:38.870 1.500E-01 0.500 F 0.289 -0.046 +14° 44' 05.00" 1.000E-01 0.500 F 0.297 0.060 18.3 V 0.70 0.25 c 691 0.15 Yes Yes
2005TZ51 O C 2005-12-28.48834 1.000E-05 08:38:37.360 1.500E-01 0.500 F 0.289 -0.040 +14° 43' 47.20" 1.000E-01 0.500 F 0.297 0.120 18.3 V 0.70 0.25 c 691 0.25 Yes Yes
2005TZ51 O C 2005-12-28.50575 1.000E-05 08:38:35.850 1.500E-01 0.500 F 0.289 -0.121 +14° 43' 29.40" 1.000E-01 0.500 F 0.297 0.214 18.3 V 0.70 0.25 c 691 0.50 Yes Yes
2005YP55 O C 2005-12-29.15852 1.000E-05 06:46:06.240 1.500E-01 0.500 F 0.042 0.007 +21° 16' 49.00" 1.000E-01 0.500 F 0.280 0.023 20.3 V 0.70 0.19 c 691 0.05 Yes Yes
2005YP55 O C 2005-12-29.17926 1.000E-05 06:46:04.460 1.500E-01 0.500 F 0.042 -0.098 +21° 17' 00.00" 1.000E-01 0.500 F 0.280 0.017 20.3 V 0.70 0.19 c 691 0.20 Yes Yes
2005YP55 O C 2005-12-29.19664 1.000E-05 06:46:02.970 1.500E-01 0.500 F 0.042 -0.071 +21° 17' 09.30" 1.000E-01 0.500 F 0.280 0.124 20.2 V 0.70 0.09 c 691 0.29 Yes Yes
2005YL128 O C 2005-12-29.27314 1.000E-05 07:34:43.230 1.500E-01 0.500 F 0.336 0.085 +20° 03' 40.10" 1.000E-01 0.500 F 0.565 0.010 20.9 V 0.70 -0.24 c 691 0.17 Yes Yes
Akka O C 2005-12-29.27558 1.000E-05 07:42:10.030 1.500E-01 0.500 F 0.419 -0.298 +18° 40' 00.70" 1.000E-01 0.500 F 0.438 -0.334 c 691 0.90 Yes No
2005YL128 O C 2005-12-29.29050 1.000E-05 07:34:40.510 1.500E-01 0.500 F 0.336 -0.229 +20° 03' 18.10" 1.000E-01 0.500 F 0.565 -0.225 21.2 V 0.70 0.06 c 691 0.65 Yes Yes
Akka O C 2005-12-29.29293 1.000E-05 07:42:08.640 1.500E-01 0.500 F 0.419 -0.231 +18° 40' 03.60" 1.000E-01 0.500 F 0.438 -0.107 c 691 0.51 Yes No
2005YL128 O C 2005-12-29.30784 1.000E-05 07:34:37.820 1.500E-01 0.500 F 0.336 -0.072 +20° 02' 56.30" 1.000E-01 0.500 F 0.565 -0.217 21.0 V 0.70 -0.14 c 691 0.46 Yes Yes
Akka O C 2005-12-29.31028 1.000E-05 07:42:07.310 1.500E-01 0.500 F 0.419 0.716 +18° 40' 06.60" 1.000E-01 0.500 F 0.438 0.235 c 691 1.51 Yes No
2000LC16 O C 2005-12-30.15182 1.000E-05 06:39:05.620 1.500E-01 0.500 F 0.140 0.019 +27° 02' 14.20" 1.000E-01 0.500 F 0.385 -0.233 21.0 V 0.70 0.23 c 691 0.47 Yes Yes
2000LC16 O C 2005-12-30.17686 1.000E-05 06:39:03.670 1.500E-01 0.500 F 0.140 -0.689 +27° 02' 13.70" 1.000E-01 0.500 F 0.385 -0.561 21.1 V 0.70 0.33 c 691 1.78 Yes Yes
2000LC16 O C 2005-12-30.20192 1.000E-05 06:39:01.810 1.500E-01 0.500 F 0.140 -0.108 +27° 02' 13.50" 1.000E-01 0.500 F 0.385 -0.558 20.8 V 0.70 0.03 c 691 1.14 Yes Yes
2000QN130 O C 2005-12-30.34762 1.000E-05 08:08:52.930 1.500E-01 0.500 F 0.305 -0.042 +20° 24' 47.40" 1.000E-01 0.500 F 0.516 0.043 19.2 V 0.70 0.63 c 691 0.12 Yes Yes
2000QN130 O C 2005-12-30.36500 1.000E-05 08:08:51.770 1.500E-01 0.500 F 0.305 -0.293 +20° 24' 54.80" 1.000E-01 0.500 F 0.516 -0.160 19.9 V 0.70 1.33 c 691 0.67 Yes Yes
2000QN130 O C 2005-12-30.38238 1.000E-05 08:08:50.650 1.500E-01 0.500 F 0.305 0.034 +20° 25' 02.60" 1.000E-01 0.500 F 0.516 0.092 19.1 V 0.70 0.53 c 691 0.20 Yes Yes
2016KE O C 2005-12-30.48824 1.000E-05 09:06:25.070 1.500E-01 0.500 F 0.511 -0.312 +18° 01' 37.60" 1.000E-01 0.500 F 0.304 -0.067 20.8 V 0.70 -0.23 c 691 0.68 Yes Yes
2005YY128 O C 2005-12-30.48824 1.000E-05 09:07:47.100 1.500E-01 0.500 F 0.180 0.130 +17° 15' 33.30" 1.000E-01 0.500 F 0.318 -0.110 19.9 V 0.70 -0.12 c 691 0.34 Yes Yes
2016KE O C 2005-12-30.50562 1.000E-05 09:06:25.480 1.500E-01 0.500 F 0.187 0.475 +18° 02' 04.80" 1.000E-01 0.500 F 0.227 0.679 21.3 V 0.70 0.28 c 691 1.71 Yes Yes
2005YY128 O C 2005-12-30.50562 1.000E-05 09:07:46.100 1.500E-01 0.500 F 0.180 -0.305 +17° 15' 35.40" 1.000E-01 0.500 F 0.318 0.015 20.1 V 0.70 0.08 c 691 0.61 Yes Yes
2016KE O C 2005-12-30.52303 1.000E-05 09:06:25.870 1.500E-01 0.500 F 0.187 0.586 +18° 02' 30.90" 1.000E-01 0.500 F 0.227 0.217 21.0 V 0.70 -0.02 c 691 1.33 Yes Yes
2005YY128 O C 2005-12-30.52303 1.000E-05 09:07:45.150 1.500E-01 0.500 F 0.180 -0.037 +17° 15' 37.30" 1.000E-01 0.500 F 0.318 -0.041 20.1 V 0.70 0.08 c 691 0.11 Yes Yes
2005YU128 O C t 2005-12-31.24523 1.000E-05 07:15:06.660 1.500E-01 0.500 F 0.094 0.964 +17° 33' 00.40" 1.000E-01 0.500 F 0.364 -0.749 18.2 V 0.70 0.14 c 691 2.68 Yes Yes
2005YU128 O C t 2005-12-31.24770 1.000E-05 07:15:02.070 1.500E-01 0.500 F 0.094 -1.129 +17° 33' 45.60" 1.000E-01 0.500 F 0.364 0.572 17.3 V 0.70 -0.76 c 691 2.79 Yes Yes
2005YU128 O C t 2005-12-31.26508 1.000E-05 07:14:30.850 1.500E-01 0.500 F 0.094 0.544 +17° 38' 52.90" 1.000E-01 0.500 F 0.364 -0.139 17.7 V 0.70 -0.35 c 691 1.22 Yes Yes
2005YU128 O C t 2005-12-31.28246 1.000E-05 07:13:59.370 1.500E-01 0.500 F 0.094 0.013 +17° 43' 59.50" 1.000E-01 0.500 F 0.364 -0.200 17.2 V 0.70 -0.85 c 691 0.43 Yes Yes
1989ML O C 2006-01-04.20923 1.000E-05 07:07:46.930 1.500E-01 0.500 F 0.177 -0.372 +22° 29' 21.40" 1.000E-01 0.500 F 0.268 -0.021 19.3 V 0.70 0.60 c 691 0.75 Yes Yes
1989ML O C 2006-01-04.23427 1.000E-05 07:07:43.490 1.500E-01 0.500 F 0.177 -0.312 +22° 29' 38.80" 1.000E-01 0.500 F 0.268 0.082 19.4 V 0.70 0.70 c 691 0.65 Yes Yes
1989ML O C 2006-01-04.25936 1.000E-05 07:07:40.030 1.500E-01 0.500 F 0.177 -0.223 +22° 29' 56.10" 1.000E-01 0.500 F 0.268 0.187 19.4 V 0.70 0.71 c 691 0.59 Yes Yes
2006BP6 O C 2006-01-04.34281 1.000E-05 08:15:05.310 1.500E-01 0.500 F 0.217 -0.516 +21° 47' 49.80" 1.000E-01 0.500 F 0.367 -0.378 21.0 V 0.70 0.27 c 691 1.36 Yes Yes
2000QN130 O C 2006-01-04.34530 1.000E-05 08:03:38.340 1.500E-01 0.500 F 0.120 -0.180 +21° 00' 37.00" 1.000E-01 0.500 F 0.411 0.142 19.1 V 0.70 0.57 c 691 0.46 Yes Yes
2006BP6 O C 2006-01-04.36017 1.000E-05 08:15:04.970 1.500E-01 0.500 F 0.217 -0.345 +21° 48' 27.10" 1.000E-01 0.500 F 0.367 0.092 21.0 V 0.70 0.27 c 691 0.73 Yes Yes
2000QN130 O C 2006-01-04.36266 1.000E-05 08:03:37.110 1.500E-01 0.500 F 0.120 -0.210 +21° 00' 44.20" 1.000E-01 0.500 F 0.411 -0.007 19.2 V 0.70 0.67 c 691 0.42 Yes Yes
2006BP6 O C 2006-01-04.37760 1.000E-05 08:15:04.630 1.500E-01 0.500 F 0.217 -0.137 +21° 49' 03.90" 1.000E-01 0.500 F 0.367 -0.048 20.9 V 0.70 0.18 c 691 0.30 Yes Yes
2000QN130 O C 2006-01-04.38009 1.000E-05 08:03:35.880 1.500E-01 0.500 F 0.120 -0.173 +21° 00' 51.80" 1.000E-01 0.500 F 0.411 0.268 19.0 V 0.70 0.47 c 691 0.64 Yes Yes
1997SE5 O C 2006-01-04.39114 1.000E-05 08:20:05.720 1.500E-01 0.500 F 0.288 -0.306 +18° 55' 17.20" 1.000E-01 0.500 F 0.286 -0.230 20.3 V 0.70 -0.02 c 691 0.77 Yes Yes
2001FY O C 2006-01-04.39114 1.000E-05 08:17:59.970 1.500E-01 0.500 F 0.149 -0.566 +19° 54' 00.50" 1.000E-01 0.500 F 0.196 0.107 20.7 V 0.70 -0.13 c 691 1.16 Yes Yes
1997SE5 O C 2006-01-04.40859 1.000E-05 08:20:04.810 1.500E-01 0.500 F 0.288 -0.027 +18° 55' 19.60" 1.000E-01 0.500 F 0.286 -0.421 20.4 V 0.70 0.08 c 691 0.84 Yes Yes
2001FY O C 2006-01-04.40859 1.000E-05 08:17:58.840 1.500E-01 0.500 F 0.149 -0.277 +19° 54' 08.00" 1.000E-01 0.500 F 0.196 0.122 21.0 V 0.70 0.17 c 691 0.61 Yes Yes
1997SE5 O C 2006-01-04.42598 1.000E-05 08:20:03.850 1.500E-01 0.500 F 0.288 -0.509 +18° 55' 22.50" 1.000E-01 0.500 F 0.286 -0.093 20.2 V 0.70 -0.12 c 691 1.04 Yes Yes
2001FY O C 2006-01-04.42598 1.000E-05 08:17:57.700 1.500E-01 0.500 F 0.149 -0.200 +19° 54' 15.20" 1.000E-01 0.500 F 0.196 -0.109 21.1 V 0.70 0.27 c 691 0.46 Yes Yes
2005YY128 O C 2006-01-04.45677 1.000E-05 09:02:29.300 1.500E-01 0.500 F 0.565 0.026 +17° 28' 29.80" 1.000E-01 0.500 F 0.366 0.049 19.8 V 0.70 0.13 c 691 0.11 Yes Yes
2005YY128 O C 2006-01-04.47419 1.000E-05 09:02:27.890 1.500E-01 0.500 F 0.565 -0.154 +17° 28' 32.80" 1.000E-01 0.500 F 0.366 -0.154 19.8 V 0.70 0.13 c 691 0.44 Yes Yes
2005YY128 O C 2006-01-04.49162 1.000E-05 09:02:26.510 1.500E-01 0.500 F 0.565 0.077 +17° 28' 36.00" 1.000E-01 0.500 F 0.366 -0.133 19.7 V 0.70 0.04 c 691 0.31 Yes Yes
2002NP1 O C 2006-01-04.50979 1.000E-05 13:19:17.820 1.500E-01 0.500 F 0.475 -0.048 -09° 13' 58.80" 1.000E-01 0.500 F 0.020 -0.166 19.4 V 0.70 0.44 c 691 0.35 Yes Yes
2002NP1 O C 2006-01-04.52472 1.000E-05 13:19:19.630 1.500E-01 0.500 F 0.475 0.077 -09° 14' 43.60" 1.000E-01 0.500 F 0.020 -0.324 19.5 V 0.70 0.54 c 691 0.67 Yes Yes
2002NP1 O C 2006-01-04.53970 1.000E-05 13:19:21.440 1.500E-01 0.500 F 0.475 0.151 -09° 15' 28.10" 1.000E-01 0.500 F 0.020 -0.048 19.6 V 0.70 0.64 c 691 0.32 Yes Yes
2005WR2 O C 2006-01-05.07511 1.000E-05 04:57:33.500 1.500E-01 0.500 F 0.062 -1.711 +25° 44' 14.10" 1.000E-01 0.500 F 0.293 0.840 20.6 V 0.70 0.67 c 691 3.78 No Yes
2005WR2 O C 2006-01-05.08537 1.000E-05 04:57:33.140 1.500E-01 0.500 F 0.062 -0.030 +25° 44' 05.20" 1.000E-01 0.500 F 0.293 -0.011 20.1 V 0.70 0.17 c 691 0.06 Yes Yes
2005WR2 O C 2006-01-05.09903 1.000E-05 04:57:32.500 1.500E-01 0.500 F 0.062 0.090 +25° 43' 54.50" 1.000E-01 0.500 F 0.293 0.024 20.0 V 0.70 0.07 c 691 0.19 Yes Yes
2005TJ174 O C 2006-01-05.11627 1.000E-05 06:21:40.190 1.500E-01 0.500 F 0.050 -0.380 +26° 50' 34.00" 1.000E-01 0.500 F 0.224 0.445 19.4 V 0.70 1.03 c 691 1.18 Yes Yes
2005TJ174 O C 2006-01-05.13364 1.000E-05 06:21:38.800 1.500E-01 0.500 F 0.050 0.070 +26° 50' 30.70" 1.000E-01 0.500 F 0.224 0.136 18.7 V 0.70 0.33 c 691 0.31 Yes Yes
2005TJ174 O C 2006-01-05.15099 1.000E-05 06:21:37.370 1.500E-01 0.500 F 0.050 0.031 +26° 50' 27.70" 1.000E-01 0.500 F 0.224 0.151 18.6 V 0.70 0.23 c 691 0.31 Yes Yes
2000LC16 O C 2006-01-05.16364 1.000E-05 06:31:45.840 1.500E-01 0.500 F 0.104 -0.113 +26° 59' 22.70" 1.000E-01 0.500 F 0.086 -0.133 21.1 V 0.70 0.16 c 691 0.35 Yes Yes
2000LC16 O C 2006-01-05.18092 1.000E-05 06:31:44.600 1.500E-01 0.500 F 0.104 0.033 +26° 59' 22.10" 1.000E-01 0.500 F 0.086 -0.142 20.7 V 0.70 -0.24 c 691 0.29 Yes Yes
2000LC16 O C 2006-01-05.19822 1.000E-05 06:31:43.330 1.500E-01 0.500 F 0.104 -0.177 +26° 59' 21.00" 1.000E-01 0.500 F 0.086 -0.634 21.0 V 0.70 0.05 c 691 1.32 Yes Yes
Beltrovata O C 2006-01-05.33319 1.000E-05 07:58:46.360 1.500E-01 0.500 F 0.231 0.091 +19° 51' 06.30" 1.000E-01 0.500 F 0.209 -0.045 18.9 V 0.70 0.26 c 691 0.20 Yes Yes
Beltrovata O C 2006-01-05.35392 1.000E-05 07:58:44.710 1.500E-01 0.500 F 0.231 0.055 +19° 51' 08.60" 1.000E-01 0.500 F 0.209 -0.113 18.6 V 0.70 -0.04 c 691 0.25 Yes Yes
Beltrovata O C 2006-01-05.37463 1.000E-05 07:58:43.060 1.500E-01 0.500 F 0.231 -0.002 +19° 51' 10.90" 1.000E-01 0.500 F 0.209 -0.153 18.7 V 0.70 0.06 c 691 0.31 Yes Yes
2005YT55 O C 2006-01-05.40806 1.000E-05 08:18:02.890 1.500E-01 0.500 F 0.190 0.149 +15° 05' 56.60" 1.000E-01 0.500 F 0.316 0.248 19.9 V 0.70 0.10 c 691 0.59 Yes Yes
2005YT55 O C 2006-01-05.42531 1.000E-05 08:18:03.500 1.500E-01 0.500 F 0.190 0.102 +15° 05' 56.10" 1.000E-01 0.500 F 0.316 -0.028 20.0 V 0.70 0.20 c 691 0.21 Yes Yes
2005YT55 O C 2006-01-05.44262 1.000E-05 08:18:04.130 1.500E-01 0.500 F 0.190 0.227 +15° 05' 55.80" 1.000E-01 0.500 F 0.316 -0.049 20.0 V 0.70 0.20 c 691 0.47 Yes Yes
2003YK O C 2006-01-05.47302 1.000E-05 13:57:35.250 1.500E-01 0.500 F 0.536 -0.366 +08° 30' 39.90" 1.000E-01 0.500 F 0.350 -0.147 19.8 V 0.70 0.13 c 691 0.79 Yes Yes
2003YK O C 2006-01-05.48790 1.000E-05 13:57:40.050 1.500E-01 0.500 F 0.536 -0.451 +08° 29' 41.70" 1.000E-01 0.500 F 0.350 -0.021 20.0 V 0.70 0.33 c 691 0.90 Yes Yes
2003YK O C 2006-01-05.50279 1.000E-05 13:57:44.840 1.500E-01 0.500 F 0.536 -0.615 +08° 28' 43.30" 1.000E-01 0.500 F 0.350 -0.031 20.0 V 0.70 0.33 c 691 1.23 Yes Yes
Mithra O C 2006-01-06.08589 1.000E-05 05:36:12.300 1.500E-01 0.500 F 0.005 -0.410 +23° 56' 48.30" 1.000E-01 0.500 F 0.183 -0.039 21.4 V 0.70 0.96 c 691 0.82 Yes Yes
Mithra O C 2006-01-06.10318 1.000E-05 05:36:11.100 1.500E-01 0.500 F 0.005 -0.111 +23° 56' 48.00" 1.000E-01 0.500 F 0.183 -0.160 20.9 V 0.70 0.46 c 691 0.39 Yes Yes
Mithra O C 2006-01-06.12047 1.000E-05 05:36:09.890 1.500E-01 0.500 F 0.005 0.078 +23° 56' 48.00" 1.000E-01 0.500 F 0.183 0.030 21.3 V 0.70 0.86 c 691 0.17 Yes Yes
2006AC3 O C 2006-01-06.24545 1.000E-05 07:35:41.180 1.500E-01 0.500 F 0.336 0.539 +19° 57' 27.40" 1.000E-01 0.500 F 0.565 0.009 19.4 V 0.70 -0.21 c 691 1.20 Yes Yes
2006AC3 O C 2006-01-06.26283 1.000E-05 07:35:47.360 1.500E-01 0.500 F 0.336 -0.271 +19° 58' 02.90" 1.000E-01 0.500 F 0.565 -0.189 20.7 V 0.70 1.09 c 691 0.72 Yes Yes
2006AC3 O C 2006-01-06.28024 1.000E-05 07:35:53.600 1.500E-01 0.500 F 0.336 0.203 +19° 58' 38.20" 1.000E-01 0.500 F 0.565 -0.255 19.5 V 0.70 -0.11 c 691 0.68 Yes Yes
2005TJ174 O C 2006-01-07.08107 1.000E-05 06:19:07.390 1.500E-01 0.500 F 0.091 -0.123 +26° 44' 10.60" 1.000E-01 0.500 F 0.342 -0.084 18.8 V 0.70 0.32 c 691 0.30 Yes Yes
2005TJ174 O C 2006-01-07.09976 1.000E-05 06:19:05.950 1.500E-01 0.500 F 0.091 -0.136 +26° 44' 07.30" 1.000E-01 0.500 F 0.342 -0.074 18.7 V 0.70 0.22 c 691 0.31 Yes Yes
2005TJ174 O C 2006-01-07.11715 1.000E-05 06:19:04.630 1.500E-01 0.500 F 0.091 0.197 +26° 44' 05.30" 1.000E-01 0.500 F 0.342 1.027 18.1 V 0.70 -0.38 c 691 2.10 Yes Yes
2006AS3 O C t 2006-01-07.18998 1.000E-05 07:19:56.630 1.500E-01 0.500 F -0.119 0.280 +30° 37' 19.40" 1.000E-01 0.500 F 0.380 -0.426 20.3 V 0.70 0.39 c 691 1.10 Yes Yes
2006AF4 O C 2006-01-07.19721 1.000E-05 07:44:06.260 1.500E-01 0.500 F 0.033 -0.034 +29° 42' 29.00" 1.000E-01 0.500 F 0.274 -0.224 20.4 V 0.70 -0.08 c 691 0.48 Yes Yes
2006AT3 O C t 2006-01-07.19988 1.000E-05 07:16:39.270 1.500E-01 0.500 F 0.085 -0.076 +27° 24' 01.30" 1.000E-01 0.500 F 0.308 -1.175 19.8 V 0.70 0.17 c 691 2.52 Yes Yes
2006AS3 O C t 2006-01-07.20739 1.000E-05 07:19:53.580 1.500E-01 0.500 F -0.119 0.060 +30° 34' 49.20" 1.000E-01 0.500 F 0.380 -1.035 20.4 V 0.70 0.50 c 691 2.25 Yes Yes
2006AF4 O C 2006-01-07.21469 1.000E-05 07:44:07.630 1.500E-01 0.500 F 0.033 -0.527 +29° 41' 12.90" 1.000E-01 0.500 F 0.274 -0.552 20.5 V 0.70 0.02 c 691 1.58 Yes Yes
2006AT3 O C t 2006-01-07.21736 1.000E-05 07:16:44.210 1.500E-01 0.500 F 0.085 0.754 +27° 20' 11.40" 1.000E-01 0.500 F 0.308 -2.091 20.1 V 0.70 0.47 c 691 4.14 No Yes
2006AS3 O C t 2006-01-07.22487 1.000E-05 07:19:50.470 1.500E-01 0.500 F -0.119 0.031 +30° 32' 18.60" 1.000E-01 0.500 F 0.380 -0.617 20.1 V 0.70 0.20 c 691 1.34 Yes Yes
2006AF4 O C 2006-01-07.23217 1.000E-05 07:44:09.030 1.500E-01 0.500 F 0.033 -0.147 +29° 39' 56.80" 1.000E-01 0.500 F 0.274 -0.720 20.2 V 0.70 -0.28 c 691 1.56 Yes Yes
2006AT3 O C t 2006-01-07.23490 1.000E-05 07:16:49.030 1.500E-01 0.500 F 0.085 0.446 +27° 16' 22.30" 1.000E-01 0.500 F 0.308 -0.956 20.2 V 0.70 0.57 c 691 2.28 Yes Yes
2017FT2 O C 2006-01-07.25770 1.000E-05 07:43:46.830 1.500E-01 0.500 F 0.085 0.169 +24° 05' 15.80" 1.000E-01 0.500 F 0.445 0.037 21.2 V 0.70 -0.11 c 691 0.41 Yes Yes
2017FT2 O C 2006-01-07.27505 1.000E-05 07:43:45.290 1.500E-01 0.500 F 0.085 -0.155 +24° 05' 11.50" 1.000E-01 0.500 F 0.445 -0.110 21.7 V 0.70 0.39 c 691 0.42 Yes Yes
2017FT2 O C 2006-01-07.29242 1.000E-05 07:43:43.770 1.500E-01 0.500 F 0.085 -0.121 +24° 05' 07.10" 1.000E-01 0.500 F 0.445 -0.297 21.6 V 0.70 0.29 c 691 0.65 Yes Yes
2006AK4 O C 2006-01-07.44633 1.000E-05 09:15:34.230 1.500E-01 0.500 F 0.406 0.580 +20° 56' 25.90" 1.000E-01 0.500 F 0.373 0.152 21.3 V 0.70 -0.29 c 691 1.34 Yes Yes
2006AK4 O C 2006-01-07.46356 1.000E-05 09:15:31.170 1.500E-01 0.500 F 0.406 -0.704 +20° 55' 50.70" 1.000E-01 0.500 F 0.373 0.034 21.7 V 0.70 0.11 c 691 1.58 Yes Yes
2006AK4 O C 2006-01-07.48211 1.000E-05 09:15:28.020 1.500E-01 0.500 F 0.406 -0.249 +20° 55' 12.20" 1.000E-01 0.500 F 0.373 -0.591 21.4 V 0.70 -0.19 c 691 1.42 Yes Yes
2000QN130 O C 2006-01-08.30560 1.000E-05 07:59:17.690 1.500E-01 0.500 F 0.212 -0.063 +21° 27' 50.80" 1.000E-01 0.500 F 0.318 -0.135 19.1 V 0.70 0.62 c 691 0.30 Yes Yes
2000QN130 O C 2006-01-08.32300 1.000E-05 07:59:16.460 1.500E-01 0.500 F 0.212 0.134 +21° 27' 57.80" 1.000E-01 0.500 F 0.318 -0.198 19.1 V 0.70 0.62 c 691 0.48 Yes Yes
2000QN130 O C 2006-01-08.34039 1.000E-05 07:59:15.210 1.500E-01 0.500 F 0.212 0.061 +21° 28' 04.90" 1.000E-01 0.500 F 0.318 -0.102 19.1 V 0.70 0.62 c 691 0.24 Yes Yes
2001FY O C 2006-01-08.35143 1.000E-05 08:13:35.070 1.500E-01 0.500 F 0.157 0.408 +20° 23' 44.70" 1.000E-01 0.500 F 0.242 1.191 21.0 V 0.70 0.36 c 691 2.53 Yes Yes
1997SE5 O C 2006-01-08.36623 1.000E-05 08:16:35.130 1.500E-01 0.500 F 0.233 -0.067 +19° 05' 16.40" 1.000E-01 0.500 F 0.326 -0.031 20.2 V 0.70 -0.07 c 691 0.15 Yes Yes
2001FY O C 2006-01-08.36875 1.000E-05 08:13:33.720 1.500E-01 0.500 F 0.157 -0.293 +20° 23' 51.30" 1.000E-01 0.500 F 0.242 -0.280 20.7 V 0.70 0.07 c 691 0.81 Yes Yes
1997SE5 O C 2006-01-08.38356 1.000E-05 08:16:34.190 1.500E-01 0.500 F 0.233 0.082 +19° 05' 18.90" 1.000E-01 0.500 F 0.326 -0.145 20.3 V 0.70 0.03 c 691 0.33 Yes Yes
2001FY O C 2006-01-08.38609 1.000E-05 08:13:32.410 1.500E-01 0.500 F 0.157 -0.411 +20° 23' 59.50" 1.000E-01 0.500 F 0.242 -0.128 20.9 V 0.70 0.27 c 691 0.86 Yes Yes
1997SE5 O C 2006-01-08.40088 1.000E-05 08:16:33.230 1.500E-01 0.500 F 0.233 -0.064 +19° 05' 21.70" 1.000E-01 0.500 F 0.326 0.052 20.2 V 0.70 -0.07 c 691 0.17 Yes Yes
2005YY128 O C 2006-01-08.41652 1.000E-05 08:56:44.670 1.500E-01 0.500 F 0.443 -0.145 +17° 43' 00.10" 1.000E-01 0.500 F 0.523 -0.110 19.5 V 0.70 0.15 c 691 0.37 Yes Yes
2005YY128 O C 2006-01-08.43387 1.000E-05 08:56:42.900 1.500E-01 0.500 F 0.443 0.071 +17° 43' 04.20" 1.000E-01 0.500 F 0.523 -0.226 19.5 V 0.70 0.15 c 691 0.48 Yes Yes
2005YY128 O C 2006-01-08.45113 1.000E-05 08:56:41.110 1.500E-01 0.500 F 0.443 -0.144 +17° 43' 08.40" 1.000E-01 0.500 F 0.523 -0.187 19.5 V 0.70 0.15 c 691 0.47 Yes Yes
Beltrovata O C 2006-01-09.31722 1.000E-05 07:53:34.240 1.500E-01 0.500 F 0.439 -0.304 +19° 58' 37.20" 1.000E-01 0.500 F 0.499 0.047 18.9 V 0.70 0.36 c 691 0.62 Yes Yes
Beltrovata O C 2006-01-09.33450 1.000E-05 07:53:32.870 1.500E-01 0.500 F 0.439 0.131 +19° 58' 39.10" 1.000E-01 0.500 F 0.499 0.004 20.0 V 0.70 1.46 c 691 0.26 Yes Yes
Beltrovata O C 2006-01-09.35178 1.000E-05 07:53:31.450 1.500E-01 0.500 F 0.439 -0.136 +19° 58' 41.00" 1.000E-01 0.500 F 0.499 -0.021 18.7 V 0.70 0.16 c 691 0.28 Yes Yes
2005YT55 O C 2006-01-09.38439 1.000E-05 08:20:53.280 1.500E-01 0.500 F 0.190 0.162 +15° 07' 41.30" 1.000E-01 0.500 F 0.317 -0.215 19.9 V 0.70 0.34 c 691 0.54 Yes Yes
2005YT55 O C 2006-01-09.40171 1.000E-05 08:20:53.850 1.500E-01 0.500 F 0.190 0.274 +15° 07' 42.20" 1.000E-01 0.500 F 0.317 -0.132 19.8 V 0.70 0.24 c 691 0.62 Yes Yes
2005YT55 O C 2006-01-09.42243 1.000E-05 08:20:54.530 1.500E-01 0.500 F 0.190 0.285 +15° 07' 43.10" 1.000E-01 0.500 F 0.317 -0.131 19.8 V 0.70 0.24 c 691 0.63 Yes Yes
2005YP55 O C H 2006-01-10.13007 1.000E-05 06:30:54.190 1.500E-01 0.500 F 0.167 0.193 +22° 49' 51.30" 1.000E-01 0.500 F 0.267 -1.071 c 691 2.20 Yes No
2005YP55 O C H 2006-01-10.14746 1.000E-05 06:30:52.950 1.500E-01 0.500 F 0.167 -0.397 +22° 49' 59.60" 1.000E-01 0.500 F 0.267 -0.236 c 691 0.94 Yes No
2005YP55 O C H 2006-01-10.16480 1.000E-05 06:30:51.720 1.500E-01 0.500 F 0.167 -0.831 +22° 50' 07.90" 1.000E-01 0.500 F 0.267 0.651 c 691 2.14 Yes No
2005YT128 O C 2006-01-10.34039 1.000E-05 07:53:45.960 1.500E-01 0.500 F 0.125 -0.529 +25° 47' 29.10" 1.000E-01 0.500 F 0.503 -0.100 20.3 V 0.70 0.31 c 691 1.11 Yes Yes
2005YT128 O C 2006-01-10.35771 1.000E-05 07:53:42.780 1.500E-01 0.500 F 0.125 0.225 +25° 46' 25.40" 1.000E-01 0.500 F 0.503 -0.015 20.4 V 0.70 0.41 c 691 0.46 Yes Yes
2005YT128 O C 2006-01-10.37503 1.000E-05 07:53:39.530 1.500E-01 0.500 F 0.125 -0.030 +25° 45' 21.20" 1.000E-01 0.500 F 0.503 -0.358 20.5 V 0.70 0.51 c 691 0.74 Yes Yes
2005YV55 O C 2006-01-10.38423 1.000E-05 08:20:47.850 1.500E-01 0.500 F 0.209 -0.009 +13° 17' 17.40" 1.000E-01 0.500 F 0.163 0.042 19.2 V 0.70 0.47 c 691 0.09 Yes Yes
2006AQ3 O C 2006-01-10.38910 1.000E-05 08:36:03.310 1.500E-01 0.500 F 0.228 -0.466 +12° 04' 35.90" 1.000E-01 0.500 F 0.303 0.403 20.9 V 0.70 -0.04 c 691 1.27 Yes Yes
2005TZ51 O C 2006-01-10.39901 1.000E-05 08:19:05.800 1.500E-01 0.500 F -0.012 0.113 +11° 35' 17.10" 1.000E-01 0.500 F 0.319 0.067 18.3 V 0.70 0.39 c 691 0.26 Yes Yes
2005YV55 O C 2006-01-10.40153 1.000E-05 08:20:47.600 1.500E-01 0.500 F 0.209 -0.218 +13° 17' 40.90" 1.000E-01 0.500 F 0.163 -0.196 19.0 V 0.70 0.27 c 691 0.59 Yes Yes
2006AQ3 O C 2006-01-10.40640 1.000E-05 08:36:01.650 1.500E-01 0.500 F 0.228 -0.071 +12° 03' 38.40" 1.000E-01 0.500 F 0.303 -0.130 20.8 V 0.70 -0.14 c 691 0.30 Yes Yes
2005TZ51 O C 2006-01-10.41624 1.000E-05 08:19:04.070 1.500E-01 0.500 F -0.012 0.226 +11° 35' 04.30" 1.000E-01 0.500 F 0.319 -0.064 18.4 V 0.70 0.49 c 691 0.47 Yes Yes
2005YV55 O C 2006-01-10.41877 1.000E-05 08:20:47.390 1.500E-01 0.500 F 0.209 0.062 +13° 18' 04.80" 1.000E-01 0.500 F 0.163 0.115 19.1 V 0.70 0.37 c 691 0.26 Yes Yes
2006AQ3 O C 2006-01-10.42364 1.000E-05 08:35:59.900 1.500E-01 0.500 F 0.228 -1.114 +12° 02' 41.00" 1.000E-01 0.500 F 0.303 -0.669 20.9 V 0.70 -0.03 c 691 2.67 Yes Yes
2005TZ51 O C 2006-01-10.43354 1.000E-05 08:19:02.330 1.500E-01 0.500 F -0.012 0.226 +11° 34' 51.60" 1.000E-01 0.500 F 0.319 -0.019 18.3 V 0.70 0.39 c 691 0.46 Yes Yes
2006AN4 O C t 2006-01-20.32535 1.000E-05 10:18:23.300 1.500E-01 0.500 F 0.350 -0.129 +15° 55' 54.30" 1.000E-01 0.500 F 0.345 -0.192 20.0 V 0.70 1.11 c 691 0.47 Yes Yes
2006AN4 O C t 2006-01-20.34268 1.000E-05 10:18:27.810 1.500E-01 0.500 F 0.350 0.341 +15° 56' 26.50" 1.000E-01 0.500 F 0.345 -0.325 19.8 V 0.70 0.91 c 691 0.96 Yes Yes
1994LY O C 2006-01-20.37809 1.000E-05 10:28:46.870 1.500E-01 0.500 F 0.379 -0.175 +10° 10' 26.60" 1.000E-01 0.500 F 0.266 0.100 c 691 0.40 Yes No
1994LY O C 2006-01-20.39770 1.000E-05 10:28:45.930 1.500E-01 0.500 F 0.379 -0.149 +10° 10' 38.30" 1.000E-01 0.500 F 0.266 -0.026 c 691 0.30 Yes No
1994LY O C 2006-01-20.41508 1.000E-05 10:28:45.100 1.500E-01 0.500 F 0.379 -0.065 +10° 10' 48.50" 1.000E-01 0.500 F 0.266 -0.302 c 691 0.62 Yes No
2005UO157 O C 2006-01-20.50138 1.000E-05 10:49:38.770 1.500E-01 0.500 F 0.458 0.079 +08° 03' 58.20" 1.000E-01 0.500 F 0.491 0.065 c 691 0.20 Yes No
2005UO157 O C 2006-01-20.51874 1.000E-05 10:49:40.280 1.500E-01 0.500 F 0.458 0.162 +08° 03' 30.40" 1.000E-01 0.500 F 0.491 0.054 c 691 0.34 Yes No
2005UO157 O C 2006-01-20.53608 1.000E-05 10:49:41.790 1.500E-01 0.500 F 0.458 0.117 +08° 03' 02.70" 1.000E-01 0.500 F 0.491 0.141 c 691 0.37 Yes No
2005YY128 O C t 2006-01-21.17404 1.000E-05 08:26:34.490 1.500E-01 0.612 F 0.267 0.653 +18° 53' 12.00" 1.000E-01 0.612 F 0.466 -0.975 18.6 V 0.70 0.53 c 691 1.93 Yes Yes
2005YY128 O C 2006-01-21.17652 1.000E-05 08:26:33.970 1.500E-01 0.612 F 0.267 0.132 +18° 53' 13.90" 1.000E-01 0.612 F 0.466 -0.114 c 691 0.29 Yes No
2005YY128 O C t 2006-01-21.19480 1.000E-05 08:26:30.440 1.500E-01 0.612 F 0.267 0.694 +18° 53' 21.20" 1.000E-01 0.612 F 0.466 -0.449 19.1 V 0.70 1.04 c 691 1.36 Yes Yes
2005YY128 O C 2006-01-21.19728 1.000E-05 08:26:29.880 1.500E-01 0.612 F 0.267 -0.367 +18° 53' 22.90" 1.000E-01 0.612 F 0.466 0.218 c 691 0.70 Yes No
2005YY128 O C t 2006-01-21.21899 1.000E-05 08:26:25.690 1.500E-01 0.612 F 0.267 0.591 +18° 53' 31.10" 1.000E-01 0.612 F 0.466 -0.594 18.2 V 0.70 0.14 c 691 1.38 Yes Yes
2005YY128 O C 2006-01-21.22147 1.000E-05 08:26:25.160 1.500E-01 0.612 F 0.267 -0.014 +18° 53' 32.70" 1.000E-01 0.612 F 0.466 -0.020 c 691 0.04 Yes No
1994XD O C H 2006-01-22.12834 1.000E-05 08:22:51.360 1.500E-01 0.500 F 0.299 0.417 +22° 44' 46.30" 1.000E-01 0.500 F 0.342 0.325 c 691 1.06 Yes No
1994XD O C H 2006-01-22.14561 1.000E-05 08:22:49.500 1.500E-01 0.500 F 0.299 -0.012 +22° 44' 52.30" 1.000E-01 0.500 F 0.342 -0.793 c 691 1.60 Yes No
1994XD O C H 2006-01-22.16289 1.000E-05 08:22:47.690 1.500E-01 0.500 F 0.299 0.320 +22° 44' 59.10" 1.000E-01 0.500 F 0.342 -1.100 c 691 2.31 Yes No
1995BL2 O C 2006-01-22.28178 1.000E-05 10:01:19.350 1.500E-01 0.500 F 0.340 -0.465 +10° 03' 06.10" 1.000E-01 0.500 F 0.112 -0.211 19.4 V 0.70 0.26 c 691 1.02 Yes Yes
2000NF5 O C 2006-01-22.28421 1.000E-05 10:08:20.480 1.500E-01 0.500 F 0.523 -0.168 +10° 10' 02.80" 1.000E-01 0.500 F 0.055 -0.242 20.4 V 0.70 -0.14 c 691 0.59 Yes Yes
1995BL2 O C 2006-01-22.29913 1.000E-05 10:01:17.140 1.500E-01 0.500 F 0.340 -0.153 +10° 03' 00.80" 1.000E-01 0.500 F 0.112 -0.169 19.3 V 0.70 0.16 c 691 0.46 Yes Yes
2000NF5 O C 2006-01-22.30156 1.000E-05 10:08:19.680 1.500E-01 0.500 F 0.523 0.314 +10° 10' 06.90" 1.000E-01 0.500 F 0.055 -0.084 20.3 V 0.70 -0.24 c 691 0.65 Yes Yes
1995BL2 O C 2006-01-22.31641 1.000E-05 10:01:14.910 1.500E-01 0.500 F 0.340 -0.197 +10° 02' 55.50" 1.000E-01 0.500 F 0.112 -0.134 19.3 V 0.70 0.16 c 691 0.48 Yes Yes
2000NF5 O C 2006-01-22.31883 1.000E-05 10:08:18.820 1.500E-01 0.500 F 0.523 -0.115 +10° 10' 10.70" 1.000E-01 0.500 F 0.055 -0.203 20.4 V 0.70 -0.14 c 691 0.47 Yes Yes
2006AO4 O C 2006-01-22.35053 1.000E-05 10:26:19.170 1.500E-01 0.500 F 0.338 -0.126 +04° 46' 43.00" 1.000E-01 0.500 F 0.222 -0.171 20.4 V 0.70 0.20 c 691 0.43 Yes Yes
2006AO4 O C 2006-01-22.36781 1.000E-05 10:26:18.150 1.500E-01 0.500 F 0.338 0.149 +04° 46' 42.60" 1.000E-01 0.500 F 0.222 -0.188 20.3 V 0.70 0.10 c 691 0.48 Yes Yes
2006AO4 O C 2006-01-22.38509 1.000E-05 10:26:17.110 1.500E-01 0.500 F 0.338 0.139 +04° 46' 42.30" 1.000E-01 0.500 F 0.222 -0.103 20.4 V 0.70 0.20 c 691 0.35 Yes Yes
2002TX68 O C 2006-01-22.45838 1.000E-05 11:18:01.710 1.500E-01 0.500 F 0.332 -0.171 +02° 18' 49.50" 1.000E-01 0.500 F 0.327 0.358 20.7 V 0.70 0.04 c 691 0.80 Yes Yes
2002TX68 O C 2006-01-22.47567 1.000E-05 11:18:01.840 1.500E-01 0.500 F 0.332 -0.173 +02° 18' 59.30" 1.000E-01 0.500 F 0.327 0.326 20.7 V 0.70 0.04 c 691 0.74 Yes Yes
2002TX68 O C 2006-01-22.49294 1.000E-05 11:18:01.960 1.500E-01 0.500 F 0.332 -0.330 +02° 19' 08.80" 1.000E-01 0.500 F 0.327 -0.001 20.6 V 0.70 -0.06 c 691 0.66 Yes Yes
2006BC10 O C 2006-01-23.12261 1.000E-05 08:13:25.760 1.500E-01 0.500 F 0.060 -0.050 +21° 42' 11.40" 1.000E-01 0.500 F 0.416 0.309 21.4 V 0.70 0.04 c 691 0.63 Yes Yes
2006AV2 O C 2006-01-23.13002 1.000E-05 08:39:04.970 1.500E-01 0.500 F 0.295 -0.329 +18° 40' 56.50" 1.000E-01 0.500 F 0.488 -0.093 19.4 V 0.70 0.76 c 691 0.69 Yes Yes
2005YY128 O C 2006-01-23.13500 1.000E-05 08:20:02.610 1.500E-01 0.500 F 0.289 0.036 +19° 06' 17.70" 1.000E-01 0.500 F 0.286 -0.087 18.1 V 0.70 0.34 c 691 0.19 Yes Yes
2006BC10 O C 2006-01-23.14003 1.000E-05 08:13:23.730 1.500E-01 0.500 F 0.060 0.028 +21° 42' 17.50" 1.000E-01 0.500 F 0.416 -0.384 21.7 V 0.70 0.34 c 691 0.77 Yes Yes
2006AV2 O C 2006-01-23.14744 1.000E-05 08:39:05.410 1.500E-01 0.500 F 0.295 -0.278 +18° 40' 29.70" 1.000E-01 0.500 F 0.488 0.164 19.2 V 0.70 0.56 c 691 0.65 Yes Yes
2005YY128 O C 2006-01-23.15242 1.000E-05 08:19:58.930 1.500E-01 0.500 F 0.289 0.102 +19° 06' 25.20" 1.000E-01 0.500 F 0.286 -0.092 18.1 V 0.70 0.34 c 691 0.28 Yes Yes
2006BC10 O C 2006-01-23.15744 1.000E-05 08:13:21.680 1.500E-01 0.500 F 0.060 -0.108 +21° 42' 24.10" 1.000E-01 0.500 F 0.416 -0.558 21.8 V 0.70 0.44 c 691 1.14 Yes Yes
2006AV2 O C 2006-01-23.16485 1.000E-05 08:39:05.830 1.500E-01 0.500 F 0.295 -0.209 +18° 40' 02.50" 1.000E-01 0.500 F 0.488 0.050 19.1 V 0.70 0.46 c 691 0.44 Yes Yes
2005YY128 O C 2006-01-23.16984 1.000E-05 08:19:55.230 1.500E-01 0.500 F 0.289 0.072 +19° 06' 32.60" 1.000E-01 0.500 F 0.286 -0.169 18.0 V 0.70 0.24 c 691 0.37 Yes Yes
2001FC7 O C 2006-01-23.18708 1.000E-05 09:20:59.460 1.500E-01 0.500 F 0.373 -0.049 +18° 58' 29.40" 1.000E-01 0.500 F 0.532 0.044 19.2 V 0.70 0.28 c 691 0.13 Yes Yes
2001FC7 O C 2006-01-23.20435 1.000E-05 09:20:57.820 1.500E-01 0.500 F 0.373 -0.044 +18° 58' 40.80" 1.000E-01 0.500 F 0.532 -0.058 19.2 V 0.70 0.28 c 691 0.15 Yes Yes
2001FC7 O C 2006-01-23.22162 1.000E-05 09:20:56.170 1.500E-01 0.500 F 0.373 -0.051 +18° 58' 52.40" 1.000E-01 0.500 F 0.532 0.064 19.1 V 0.70 0.18 c 691 0.16 Yes Yes
1999MM O C 2006-01-23.23288 1.000E-05 09:38:17.150 1.500E-01 0.500 F 0.328 -0.277 +20° 25' 05.40" 1.000E-01 0.500 F 0.440 -0.011 18.2 V 0.70 0.51 c 691 0.57 Yes Yes
1999MM O C 2006-01-23.25021 1.000E-05 09:38:12.220 1.500E-01 0.500 F 0.328 -0.388 +20° 25' 37.00" 1.000E-01 0.500 F 0.440 0.008 18.2 V 0.70 0.51 c 691 0.80 Yes Yes
1999MM O C 2006-01-23.26755 1.000E-05 09:38:07.280 1.500E-01 0.500 F 0.328 -0.417 +20° 26' 08.40" 1.000E-01 0.500 F 0.440 -0.067 18.1 V 0.70 0.41 c 691 0.87 Yes Yes
2006BB8 O C 2006-01-23.40495 1.000E-05 11:10:44.690 1.500E-01 0.500 F 0.494 -0.314 +13° 58' 11.10" 1.000E-01 0.500 F 0.150 0.545 20.3 V 0.70 0.21 c 691 1.37 Yes Yes
2006BB27 O C 2006-01-23.40495 1.000E-05 11:10:12.850 1.500E-01 0.500 F 0.494 -0.034 +14° 10' 18.50" 1.000E-01 0.500 F 0.150 0.088 20.9 V 0.70 -0.32 c 691 0.19 Yes Yes
2006BB8 O C 2006-01-23.42215 1.000E-05 11:10:41.550 1.500E-01 0.500 F 0.494 0.247 +14° 00' 17.00" 1.000E-01 0.500 F 0.150 -1.113 20.0 V 0.70 -0.09 c 691 2.48 Yes Yes
2006BB27 O C 2006-01-23.42215 1.000E-05 11:10:13.060 1.500E-01 0.500 F 0.494 -0.070 +14° 10' 55.80" 1.000E-01 0.500 F 0.150 0.430 21.1 V 0.70 -0.12 c 691 0.88 Yes Yes
2006BB8 O C 2006-01-23.43942 1.000E-05 11:10:38.300 1.500E-01 0.500 F 0.494 -0.564 +14° 02' 25.80" 1.000E-01 0.500 F 0.150 0.262 19.8 V 0.70 -0.29 c 691 1.35 Yes Yes
2006BB27 O C 2006-01-23.43942 1.000E-05 11:10:13.270 1.500E-01 0.500 F 0.494 -0.097 +14° 11' 33.40" 1.000E-01 0.500 F 0.150 0.935 20.7 V 0.70 -0.52 c 691 1.90 Yes Yes
Wilson-Harrington O C 2006-01-24.14413 1.000E-05 08:14:02.190 1.500E-01 0.500 F 0.283 -0.012 +17° 16' 41.00" 1.000E-01 0.500 F 0.299 -0.254 c 691 0.51 Yes No
2005YT55 O C 2006-01-24.15393 1.000E-05 08:30:55.900 1.500E-01 0.500 F 0.319 0.024 +15° 48' 26.60" 1.000E-01 0.500 F 0.302 -0.092 c 691 0.19 Yes No
Wilson-Harrington O C 2006-01-24.16141 1.000E-05 08:14:00.730 1.500E-01 0.500 F 0.283 -0.039 +17° 16' 45.30" 1.000E-01 0.500 F 0.299 -0.129 c 691 0.27 Yes No
2005YT55 O C 2006-01-24.17120 1.000E-05 08:30:56.520 1.500E-01 0.500 F 0.319 -0.066 +15° 48' 32.00" 1.000E-01 0.500 F 0.302 -0.059 c 691 0.18 Yes No
Wilson-Harrington O C 2006-01-24.18210 1.000E-05 08:13:58.980 1.500E-01 0.500 F 0.283 -0.036 +17° 16' 50.10" 1.000E-01 0.500 F 0.299 -0.311 c 691 0.63 Yes No
2005YT55 O C 2006-01-24.19190 1.000E-05 08:30:57.260 1.500E-01 0.500 F 0.319 0.113 +15° 48' 38.30" 1.000E-01 0.500 F 0.302 -0.132 c 691 0.35 Yes No
2006BA9 O C 2006-01-24.21293 1.000E-05 09:16:41.280 1.500E-01 0.500 F 0.207 -0.046 +15° 41' 37.30" 1.000E-01 0.500 F 0.311 -0.303 20.3 V 0.70 -0.04 c 691 0.63 Yes Yes
2006BA9 O C 2006-01-24.23034 1.000E-05 09:16:34.520 1.500E-01 0.500 F 0.207 0.229 +15° 41' 33.20" 1.000E-01 0.500 F 0.311 -0.109 21.0 V 0.70 0.66 c 691 0.52 Yes Yes
2006BA9 O C 2006-01-24.24772 1.000E-05 09:16:27.780 1.500E-01 0.500 F 0.207 0.923 +15° 41' 28.80" 1.000E-01 0.500 F 0.311 -0.126 20.6 V 0.70 0.26 c 691 1.91 Yes Yes
2006BX26 O C 2006-01-25.17772 1.000E-05 08:41:52.530 1.500E-01 0.500 F 0.260 0.035 +20° 23' 53.20" 1.000E-01 0.500 F 0.328 0.308 20.9 V 0.70 -0.24 c 691 0.68 Yes Yes
2006BX26 O C 2006-01-25.19500 1.000E-05 08:41:53.480 1.500E-01 0.500 F 0.260 0.196 +20° 24' 21.00" 1.000E-01 0.500 F 0.328 0.491 21.4 V 0.70 0.26 c 691 1.17 Yes Yes
2006BX26 O C 2006-01-25.21222 1.000E-05 08:41:54.390 1.500E-01 0.500 F 0.260 0.113 +20° 24' 48.30" 1.000E-01 0.500 F 0.328 0.369 21.1 V 0.70 -0.04 c 691 0.84 Yes Yes

[1-200] [201-400] [401-600] [601-800] [801-1000] [1001-1200] [1201-1400] [1401-1600] [1601-1800] [1801-2000] [2001-2200] [2201-2400] [2401-2600] [2601-2800] [2801-3000] [3001-3200] [3201-3400] [3401-3600] [3601-3800] [3801-4000] [4001-4200] [4201-4400] [4401-4600] [4601-4800] [4801-5000] [5001-5200] [5201-5400] [5401-5600] [5601-5800] [5801-6000] [6001-6200] [6201-6400] [6401-6600] [6601-6800] [6801-7000] [7001-7200] [7201-7400] [7401-7600] [7601-7800] [7801-8000] [8001-8200] [8201-8400] [8401-8600] [8601-8800] [8801-9000] [9001-9200] [9201-9400] [9401-9600] [9601-9800] [9801-10000] [10001-10200] [10201-10400] [10401-10600] [10601-10800] [10801-11000] [11001-11200] [11201-11400] [11401-11600] [11601-11800] [11801-12000] [12001-12200] [12201-12400] [12401-12600] [12601-12800] [12801-13000] [13001-13200] [13201-13400] [13401-13600] [13601-13800] [13801-14000] [14001-14200] [14201-14400] [14401-14600] [14601-14800] [14801-15000] [15001-15200] [15201-15400] [15401-15600] [15601-15800] [15801-16000] [16001-16200] [16201-16400] [16401-16600] [16601-16800] [16801-17000] [17001-17200] [17201-17400] [17401-17600] [17601-17800] [17801-18000] [18001-18200] [18201-18400] [18401-18600] [18601-18800] [18801-19000] [19001-19200] [19201-19400] [19401-19600] [19601-19800] [19801-20000] [20001-20200] [20201-20400] [20401-20600] [20601-20800] [20801-21000] [21001-21200] [21201-21400] [21401-21600] [21601-21800] [21801-22000] [22001-22200] [22201-22400] [22401-22600] [22601-22800] [22801-23000] [23001-23200] [23201-23400] [23401-23600] [23601-23800] [23801-24000] [24001-24200] [24201-24400] [24401-24600] [24601-24800] [24801-25000] [25001-25200] [25201-25400] [25401-25600] [25601-25800] [25801-26000] [26001-26200] [26201-26400] [26401-26600] [26601-26800] [26801-27000] [27001-27200] [27201-27400] [27401-27600] [27601-27800] [27801-28000] [28001-28200] [28201-28400] [28401-28600] [28601-28800] [28801-29000] [29001-29200] [29201-29400] [29401-29600] [29601-29800] [29801-30000] [30001-30200] [30201-30400] [30401-30600] [30601-30800] [30801-31000] [31001-31200] [31201-31400] [31401-31600] [31601-31800] [31801-32000] [32001-32200] [32201-32400] [32401-32600] [32601-32800] [32801-33000] [33001-33200] [33201-33400] [33401-33600] [33601-33800] [33801-34000] [34001-34200] [34201-34400] [34401-34600] [34601-34800] [34801-35000] [35001-35200] [35201-35400] [35401-35600] [35601-35800] [35801-36000] [36001-36200] [36201-36400] [36401-36600] [36601-36800] [36801-37000] [37001-37200] [37201-37400] [37401-37600] [37601-37800] [37801-38000] [38001-38200] [38201-38400] [38401-38600] [38601-38800] [38801-39000] [39001-39200] [39201-39400] [39401-39600] [39601-39800] [39801-40000] [40001-40200] [40201-40400] [40401-40600] [40601-40800] [40801-41000] [41001-41200] [41201-41400] [41401-41600] [41601-41800] [41801-42000] [42001-42200] [42201-42400] [42401-42600] [42601-42800] [42801-43000] [43001-43200] [43201-43400] [43401-43600] [43601-43800] [43801-44000] [44001-44200] [44201-44400] [44401-44600] [44601-44800] [44801-45000] [45001-45200] [45201-45400] [45401-45600] [45601-45800] [45801-46000] [46001-46200] [46201-46400] [46401-46600] [46601-46800] [46801-47000] [47001-47200] [47201-47400] [47401-47600] [47601-47800] [47801-48000] [48001-48200] [48201-48400] [48401-48600] [48601-48800] [48801-49000] [49001-49200] [49201-49400] [49401-49600] [49601-49800] [49801-50000] [50001-50200] [50201-50388]